Time;durP1;ratioP1;P1;durP2;ratioP2;P2;SDS_P1;SDS_P2;PMS_P1;PMS_P2;Temp;Humidity;BMP_temperature;BMP_pressure;BME280_temperature;BME280_humidity;BME280_pressure;Samples;Min_cycle;Max_cycle;Signal;HPM_P1;HPM_P2
2021/03/22 00:00:56;;;;;;;22.73;7.60;;;;;;;;;;2082464;28;20187;-58
2021/03/22 00:01:57;;;;;;;24.07;7.60;;;;;;;;;;2080244;28;20648;-62
2021/03/22 00:02:57;;;;;;;19.87;7.30;;;;;;;;;;2082473;28;20187;-59
2021/03/22 00:03:57;;;;;;;23.20;7.93;;;;;;;;;;2077776;28;20173;-56
2021/03/22 00:04:57;;;;;;;25.80;8.27;;;;;;;;;;2084314;28;20195;-56
2021/03/22 00:05:58;;;;;;;22.50;6.93;;;;;;;;;;2080434;28;20180;-54
2021/03/22 00:06:58;;;;;;;20.03;7.00;;;;;;;;;;2082855;28;20191;-54
2021/03/22 00:07:59;;;;;;;20.93;6.77;;;;;;;;;;2080975;28;20181;-58
2021/03/22 00:08:59;;;;;;;20.77;7.70;;;;;;;;;;2089433;28;20171;-54
2021/03/22 00:09:59;;;;;;;24.67;7.07;;;;;;;;;;2082827;28;20179;-58
2021/03/22 00:10:59;;;;;;;20.97;7.10;;;;;;;;;;2082827;28;20232;-57
2021/03/22 00:12:00;;;;;;;23.37;7.10;;;;;;;;;;2080612;28;20259;-59
2021/03/22 00:13:00;;;;;;;20.13;8.43;;;;;;;;;;2081139;28;20267;-58
2021/03/22 00:14:01;;;;;;;24.37;7.40;;;;;;;;;;2078124;28;20180;-58
2021/03/22 00:15:02;;;;;;;21.73;8.47;;;;;;;;;;2072011;28;20203;-56
2021/03/22 00:16:04;;;;;;;29.20;8.17;;;;;;;;;;2080682;28;20183;-56
2021/03/22 00:17:05;;;;;;;20.63;7.60;;;;;;;;;;2081117;28;20645;-57
2021/03/22 00:18:07;;;;;;;19.93;7.33;;;;;;;;;;2082087;28;20190;-54
2021/03/22 00:19:07;;;;;;;24.37;8.43;;;;;;;;;;2088303;28;20322;-60
2021/03/22 00:20:09;;;;;;;25.67;8.60;;;;;;;;;;2082935;28;20176;-58
2021/03/22 00:21:10;;;;;;;21.70;7.90;;;;;;;;;;2080751;28;20234;-57
2021/03/22 00:22:10;;;;;;;23.17;8.20;;;;;;;;;;2071969;28;20675;-56
2021/03/22 00:23:11;;;;;;;25.30;7.90;;;;;;;;;;2072963;28;20188;-56
2021/03/22 00:24:11;;;;;;;19.83;6.57;;;;;;;;;;2072863;28;20176;-58
2021/03/22 00:25:12;;;;;;;17.27;7.77;;;;;;;;;;2072591;28;20192;-59
2021/03/22 00:26:12;;;;;;;25.17;7.70;;;;;;;;;;2081489;28;20272;-59
2021/03/22 00:27:13;;;;;;;24.67;8.13;;;;;;;;;;2081562;28;20225;-57
2021/03/22 00:28:14;;;;;;;28.53;8.53;;;;;;;;;;2081781;28;20614;-58
2021/03/22 00:29:14;;;;;;;31.07;7.50;;;;;;;;;;2081282;28;20270;-60
2021/03/22 00:30:19;;;;;;;24.40;7.73;;;;;;;;;;2074379;28;20187;-58
2021/03/22 00:31:20;;;;;;;28.43;8.20;;;;;;;;;;2078882;28;20191;-58
2021/03/22 00:32:20;;;;;;;20.77;7.30;;;;;;;;;;2086196;28;20164;-55
2021/03/22 00:33:22;;;;;;;25.83;8.30;;;;;;;;;;2078008;28;20242;-61
2021/03/22 00:34:22;;;;;;;23.50;7.80;;;;;;;;;;2079904;28;20186;-59
2021/03/22 00:35:23;;;;;;;21.67;7.87;;;;;;;;;;2086147;28;20267;-61
2021/03/22 00:36:24;;;;;;;20.53;7.33;;;;;;;;;;2084857;28;20180;-61
2021/03/22 00:37:24;;;;;;;32.77;8.60;;;;;;;;;;2090584;28;20199;-59
2021/03/22 00:38:24;;;;;;;26.13;7.90;;;;;;;;;;2089884;28;20217;-59
2021/03/22 00:39:24;;;;;;;24.80;8.73;;;;;;;;;;2089901;28;20200;-60
2021/03/22 00:40:27;;;;;;;20.47;7.63;;;;;;;;;;2082414;28;20180;-61
2021/03/22 00:41:27;;;;;;;27.03;7.90;;;;;;;;;;2081497;28;20185;-61
2021/03/22 00:42:27;;;;;;;25.80;8.00;;;;;;;;;;2085298;28;20182;-58
2021/03/22 00:43:27;;;;;;;31.53;8.77;;;;;;;;;;2076689;28;20177;-61
2021/03/22 00:44:28;;;;;;;24.90;8.17;;;;;;;;;;2076542;28;20200;-58
2021/03/22 00:45:28;;;;;;;33.07;7.60;;;;;;;;;;2087012;28;20215;-57
2021/03/22 00:46:28;;;;;;;20.43;8.03;;;;;;;;;;2071806;28;20193;-58
2021/03/22 00:47:28;;;;;;;24.67;8.00;;;;;;;;;;2072905;28;20169;-60
2021/03/22 00:48:30;;;;;;;30.80;8.07;;;;;;;;;;2072553;28;20188;-55
2021/03/22 00:49:30;;;;;;;27.43;7.97;;;;;;;;;;2076476;28;20684;-58
2021/03/22 00:50:32;;;;;;;29.90;8.10;;;;;;;;;;2076208;28;20231;-58
2021/03/22 00:51:33;;;;;;;25.20;8.67;;;;;;;;;;2085911;28;20249;-59
2021/03/22 00:52:33;;;;;;;26.23;8.00;;;;;;;;;;2089814;28;20636;-56
2021/03/22 00:53:36;;;;;;;18.07;7.83;;;;;;;;;;2083509;28;20172;-53
2021/03/22 00:54:38;;;;;;;20.33;7.97;;;;;;;;;;2072640;28;20271;-58
2021/03/22 00:55:38;;;;;;;24.73;7.93;;;;;;;;;;2074242;28;20181;-58
2021/03/22 00:56:38;;;;;;;31.47;8.37;;;;;;;;;;2086570;28;20215;-56
2021/03/22 00:57:38;;;;;;;20.37;7.40;;;;;;;;;;2084142;28;20178;-59
2021/03/22 00:58:40;;;;;;;24.83;8.20;;;;;;;;;;2081248;28;20164;-58
2021/03/22 00:59:40;;;;;;;22.30;6.87;;;;;;;;;;2081394;28;20193;-61
2021/03/22 01:00:47;;;;;;;25.30;8.70;;;;;;;;;;2081094;28;20164;-59
2021/03/22 01:01:47;;;;;;;20.73;7.27;;;;;;;;;;2081054;28;20168;-59
2021/03/22 01:02:48;;;;;;;20.80;7.17;;;;;;;;;;2081292;28;20190;-52
2021/03/22 01:03:48;;;;;;;21.63;7.20;;;;;;;;;;2081573;28;20156;-59
2021/03/22 01:04:48;;;;;;;23.57;7.07;;;;;;;;;;2072179;28;20243;-57
2021/03/22 01:05:49;;;;;;;26.47;6.70;;;;;;;;;;2065090;28;20605;-58
2021/03/22 01:06:49;;;;;;;26.83;7.30;;;;;;;;;;2079097;28;20176;-58
2021/03/22 01:07:49;;;;;;;21.90;6.70;;;;;;;;;;2082445;28;20188;-55
2021/03/22 01:08:50;;;;;;;19.07;6.77;;;;;;;;;;2063798;28;20182;-57
2021/03/22 01:09:50;;;;;;;24.50;7.77;;;;;;;;;;2071379;28;20357;-57
2021/03/22 01:10:52;;;;;;;29.37;7.67;;;;;;;;;;2082132;28;20219;-59
2021/03/22 01:11:52;;;;;;;19.93;6.43;;;;;;;;;;2088250;28;20176;-59
2021/03/22 01:12:53;;;;;;;20.63;7.00;;;;;;;;;;2088832;28;20213;-58
2021/03/22 01:13:54;;;;;;;28.20;7.10;;;;;;;;;;2089134;28;20191;-61
2021/03/22 01:14:54;;;;;;;19.20;6.40;;;;;;;;;;2089525;28;20167;-56
2021/03/22 01:15:55;;;;;;;21.03;6.57;;;;;;;;;;2082930;28;20731;-58
2021/03/22 01:16:55;;;;;;;18.23;6.20;;;;;;;;;;2072390;28;20209;-58
2021/03/22 01:17:56;;;;;;;18.47;7.73;;;;;;;;;;2072487;28;20181;-59
2021/03/22 01:18:56;;;;;;;22.13;6.83;;;;;;;;;;2080891;28;20188;-59
2021/03/22 01:19:57;;;;;;;20.67;6.93;;;;;;;;;;2074353;28;20189;-59
2021/03/22 01:21:07;;;;;;;24.73;7.67;;;;;;;;;;2080056;28;20204;-55
2021/03/22 01:22:07;;;;;;;25.13;7.43;;;;;;;;;;2074966;28;20165;-57
2021/03/22 01:23:07;;;;;;;24.40;6.87;;;;;;;;;;2088425;28;20176;-60
2021/03/22 01:24:09;;;;;;;24.07;7.23;;;;;;;;;;2072408;28;20209;-60
2021/03/22 01:25:10;;;;;;;24.67;7.20;;;;;;;;;;2072397;28;20292;-59
2021/03/22 01:26:11;;;;;;;19.10;6.80;;;;;;;;;;2080070;28;20180;-59
2021/03/22 01:27:11;;;;;;;22.70;6.13;;;;;;;;;;2081367;28;20195;-58
2021/03/22 01:28:12;;;;;;;20.03;8.13;;;;;;;;;;2081168;28;20177;-55
2021/03/22 01:29:15;;;;;;;24.37;7.50;;;;;;;;;;2080840;28;20195;-58
2021/03/22 01:30:20;;;;;;;25.93;6.53;;;;;;;;;;2080972;28;20176;-59
2021/03/22 01:31:21;;;;;;;25.40;7.07;;;;;;;;;;2081018;28;20183;-58
2021/03/22 01:32:21;;;;;;;24.67;6.53;;;;;;;;;;2081181;28;20174;-58
2021/03/22 01:33:25;;;;;;;23.47;7.63;;;;;;;;;;2081093;28;20187;-61
2021/03/22 01:34:26;;;;;;;21.43;8.20;;;;;;;;;;2081201;28;20169;-60
2021/03/22 01:35:26;;;;;;;23.30;7.13;;;;;;;;;;2079672;28;20200;-60
2021/03/22 01:36:28;;;;;;;20.33;6.47;;;;;;;;;;2075956;28;20596;-60
2021/03/22 01:37:29;;;;;;;26.23;8.03;;;;;;;;;;2067841;28;20219;-60
2021/03/22 01:38:29;;;;;;;29.57;8.07;;;;;;;;;;2076490;28;20193;-61
2021/03/22 01:39:31;;;;;;;23.83;7.23;;;;;;;;;;2085272;28;20261;-60
2021/03/22 01:40:50;;;;;;;23.40;7.03;;;;;;;;;;2080396;28;20352;-60
2021/03/22 01:41:56;;;;;;;26.27;7.57;;;;;;;;;;2087811;28;20179;-60
2021/03/22 01:43:05;;;;;;;18.60;6.77;;;;;;;;;;2072652;28;20624;-59
2021/03/22 01:44:09;;;;;;;22.03;6.90;;;;;;;;;;2073482;28;20197;-58
2021/03/22 01:45:09;;;;;;;18.17;6.60;;;;;;;;;;2081254;28;20661;-60
2021/03/22 01:46:09;;;;;;;28.50;7.50;;;;;;;;;;2080894;28;20222;-59
2021/03/22 01:47:12;;;;;;;28.17;6.73;;;;;;;;;;2080997;28;20184;-60
2021/03/22 01:48:13;;;;;;;17.10;7.10;;;;;;;;;;2081147;28;20627;-60
2021/03/22 01:49:13;;;;;;;19.20;6.57;;;;;;;;;;2080226;28;20188;-59
2021/03/22 01:50:40;;;;;;;18.00;7.07;;;;;;;;;;2082835;28;20529;-57
2021/03/22 01:51:40;;;;;;;30.57;7.30;;;;;;;;;;2067328;28;20586;-61
2021/03/22 01:52:43;;;;;;;18.80;5.67;;;;;;;;;;2071396;28;20191;-57
2021/03/22 01:53:43;;;;;;;20.97;6.47;;;;;;;;;;2078141;28;20555;-57
2021/03/22 01:54:44;;;;;;;18.10;6.33;;;;;;;;;;2080274;28;20216;-62
2021/03/22 01:55:44;;;;;;;27.93;7.83;;;;;;;;;;2079945;28;20180;-58
2021/03/22 01:56:46;;;;;;;23.10;6.70;;;;;;;;;;2072853;28;20196;-59
2021/03/22 01:57:46;;;;;;;19.83;6.97;;;;;;;;;;2072214;28;20258;-60
2021/03/22 01:58:46;;;;;;;22.73;7.10;;;;;;;;;;2072785;28;20594;-58
2021/03/22 01:59:47;;;;;;;21.60;6.73;;;;;;;;;;2079956;28;21882;-57
2021/03/22 02:00:47;;;;;;;26.33;7.50;;;;;;;;;;2079409;28;20470;-56
2021/03/22 02:01:50;;;;;;;18.23;6.73;;;;;;;;;;2087111;28;20248;-58
2021/03/22 02:02:52;;;;;;;24.77;7.00;;;;;;;;;;2082184;28;20236;-60
2021/03/22 02:03:52;;;;;;;17.20;6.53;;;;;;;;;;2087209;28;20176;-58
2021/03/22 02:04:53;;;;;;;18.80;6.97;;;;;;;;;;2072223;28;20273;-58
2021/03/22 02:05:53;;;;;;;13.47;6.20;;;;;;;;;;2072625;28;20201;-58
2021/03/22 02:06:58;;;;;;;21.70;6.17;;;;;;;;;;2081072;28;20183;-58
2021/03/22 02:08:01;;;;;;;28.07;6.80;;;;;;;;;;2081561;28;20165;-57
2021/03/22 02:09:02;;;;;;;23.17;6.33;;;;;;;;;;2080768;28;20192;-57
2021/03/22 02:10:03;;;;;;;26.90;7.30;;;;;;;;;;2082530;28;20172;-58
2021/03/22 02:11:03;;;;;;;21.00;6.57;;;;;;;;;;2079967;28;20183;-55
2021/03/22 02:12:24;;;;;;;17.07;6.80;;;;;;;;;;2072366;28;20192;-60
2021/03/22 02:13:26;;;;;;;17.07;6.33;;;;;;;;;;2079307;28;20192;-58
2021/03/22 02:14:27;;;;;;;17.47;7.53;;;;;;;;;;2080412;28;20521;-61
2021/03/22 02:15:27;;;;;;;24.93;7.57;;;;;;;;;;2086932;28;20175;-59
2021/03/22 02:16:32;;;;;;;21.60;6.97;;;;;;;;;;2072444;28;20173;-59
2021/03/22 02:17:51;;;;;;;16.73;6.93;;;;;;;;;;2072672;28;20204;-59
2021/03/22 02:18:55;;;;;;;18.87;5.77;;;;;;;;;;2081069;28;20180;-57
2021/03/22 02:20:10;;;;;;;26.60;7.23;;;;;;;;;;2080920;28;20649;-60
2021/03/22 02:21:25;;;;;;;18.63;6.67;;;;;;;;;;2081198;28;20168;-58
2021/03/22 02:22:25;;;;;;;21.63;7.20;;;;;;;;;;2072147;28;20176;-59
2021/03/22 02:23:43;;;;;;;21.67;7.00;;;;;;;;;;2072055;28;20185;-62
2021/03/22 02:25:02;;;;;;;21.87;6.73;;;;;;;;;;2080118;28;20211;-60
2021/03/22 02:26:25;;;;;;;21.93;7.60;;;;;;;;;;2080621;28;20255;-59
2021/03/22 02:27:42;;;;;;;26.67;7.03;;;;;;;;;;2072699;28;20180;-61
2021/03/22 02:29:03;;;;;;;25.80;7.23;;;;;;;;;;2081611;28;20156;-60
2021/03/22 02:30:04;;;;;;;24.70;7.37;;;;;;;;;;2081742;28;20200;-61
2021/03/22 02:31:15;;;;;;;17.90;8.20;;;;;;;;;;2073647;28;20161;-55
2021/03/22 02:32:21;;;;;;;17.00;6.73;;;;;;;;;;2066611;28;20261;-62
2021/03/22 02:33:22;;;;;;;20.10;6.73;;;;;;;;;;2074536;28;20820;-56
2021/03/22 02:34:27;;;;;;;19.83;7.13;;;;;;;;;;2073417;28;20173;-62
2021/03/22 02:35:33;;;;;;;27.93;7.20;;;;;;;;;;2073606;28;20610;-60
2021/03/22 02:36:40;;;;;;;26.17;7.17;;;;;;;;;;2080905;28;20660;-60
2021/03/22 02:37:46;;;;;;;25.03;7.50;;;;;;;;;;2085659;28;20286;-60
2021/03/22 02:38:54;;;;;;;28.37;7.43;;;;;;;;;;2083862;28;20181;-59
2021/03/22 02:39:59;;;;;;;17.20;6.90;;;;;;;;;;2084520;28;20688;-61
2021/03/22 02:41:02;;;;;;;16.47;6.40;;;;;;;;;;2079891;28;20169;-62
2021/03/22 02:42:05;;;;;;;26.13;8.23;;;;;;;;;;2089111;28;20699;-58
2021/03/22 02:43:06;;;;;;;30.83;7.93;;;;;;;;;;2073331;28;20256;-60
2021/03/22 02:44:09;;;;;;;21.83;7.37;;;;;;;;;;2073173;28;20180;-60
2021/03/22 02:45:10;;;;;;;17.33;7.23;;;;;;;;;;2081598;28;20624;-60
2021/03/22 02:46:10;;;;;;;26.33;7.40;;;;;;;;;;2083222;28;20180;-57
2021/03/22 02:47:19;;;;;;;22.93;7.13;;;;;;;;;;2088907;28;20171;-59
2021/03/22 02:48:21;;;;;;;23.33;7.40;;;;;;;;;;2076003;28;20267;-61
2021/03/22 02:49:22;;;;;;;20.57;7.00;;;;;;;;;;2078047;28;20692;-58
2021/03/22 02:50:24;;;;;;;24.37;7.43;;;;;;;;;;2074547;28;20206;-60
2021/03/22 02:51:27;;;;;;;15.87;6.07;;;;;;;;;;2074561;28;20203;-63
2021/03/22 02:52:42;;;;;;;24.93;7.80;;;;;;;;;;2082137;28;20229;-59
2021/03/22 02:53:48;;;;;;;20.67;7.13;;;;;;;;;;2077770;28;20598;-58
2021/03/22 02:55:01;;;;;;;20.33;7.60;;;;;;;;;;2087145;28;20179;-60
2021/03/22 02:56:09;;;;;;;17.07;6.90;;;;;;;;;;2080958;28;20527;-56
2021/03/22 02:57:19;;;;;;;22.73;8.10;;;;;;;;;;2087405;28;20160;-59
2021/03/22 02:58:21;;;;;;;26.90;8.17;;;;;;;;;;2079841;28;20202;-59
2021/03/22 02:59:26;;;;;;;26.07;8.10;;;;;;;;;;2080659;28;20234;-59
2021/03/22 03:00:31;;;;;;;23.13;7.03;;;;;;;;;;2085167;28;20183;-56
2021/03/22 03:01:33;;;;;;;26.63;7.87;;;;;;;;;;2084818;28;20853;-57
2021/03/22 03:02:35;;;;;;;22.27;7.27;;;;;;;;;;2087201;28;20290;-57
2021/03/22 03:03:36;;;;;;;22.17;8.13;;;;;;;;;;2082620;28;20172;-58
2021/03/22 03:04:37;;;;;;;16.97;7.27;;;;;;;;;;2087441;28;20171;-56
2021/03/22 03:05:37;;;;;;;18.30;7.00;;;;;;;;;;2083956;28;22293;-59
2021/03/22 03:06:48;;;;;;;13.97;6.83;;;;;;;;;;2087671;28;20190;-56
2021/03/22 03:07:48;;;;;;;25.30;7.80;;;;;;;;;;2081848;28;20408;-59
2021/03/22 03:08:49;;;;;;;22.07;8.80;;;;;;;;;;2081093;28;20592;-58
2021/03/22 03:09:49;;;;;;;18.07;7.67;;;;;;;;;;2078593;28;20226;-57
2021/03/22 03:10:50;;;;;;;24.83;7.70;;;;;;;;;;2081161;28;20177;-58
2021/03/22 03:11:50;;;;;;;23.13;7.13;;;;;;;;;;2075917;28;20193;-59
2021/03/22 03:12:50;;;;;;;20.77;7.03;;;;;;;;;;2080312;28;20207;-57
2021/03/22 03:13:51;;;;;;;23.30;7.77;;;;;;;;;;2082024;28;20184;-58
2021/03/22 03:14:52;;;;;;;24.10;7.90;;;;;;;;;;2089453;28;20183;-58
2021/03/22 03:15:53;;;;;;;26.67;7.47;;;;;;;;;;2080930;28;20188;-57
2021/03/22 03:16:53;;;;;;;21.13;8.73;;;;;;;;;;2080177;28;20180;-57
2021/03/22 03:17:53;;;;;;;14.47;7.67;;;;;;;;;;2064792;28;20201;-59
2021/03/22 03:18:53;;;;;;;28.10;8.37;;;;;;;;;;2064448;28;20170;-59
2021/03/22 03:19:54;;;;;;;17.57;7.97;;;;;;;;;;2074966;28;20688;-55
2021/03/22 03:20:57;;;;;;;26.07;8.60;;;;;;;;;;2089690;28;20180;-58
2021/03/22 03:21:57;;;;;;;21.30;8.10;;;;;;;;;;2081895;28;20180;-58
2021/03/22 03:22:58;;;;;;;26.23;8.87;;;;;;;;;;2081972;28;20234;-60
2021/03/22 03:23:59;;;;;;;23.43;8.60;;;;;;;;;;2081481;28;20174;-61
2021/03/22 03:24:59;;;;;;;26.50;9.10;;;;;;;;;;2081361;28;20207;-58
2021/03/22 03:25:59;;;;;;;21.43;8.83;;;;;;;;;;2081836;28;20184;-61
2021/03/22 03:27:00;;;;;;;30.40;9.73;;;;;;;;;;2082070;28;20255;-59
2021/03/22 03:28:00;;;;;;;18.77;7.90;;;;;;;;;;2082172;28;20212;-57
2021/03/22 03:29:00;;;;;;;23.90;7.80;;;;;;;;;;2082000;28;20172;-58
2021/03/22 03:30:03;;;;;;;22.80;9.03;;;;;;;;;;2081941;28;20494;-59
2021/03/22 03:31:03;;;;;;;24.63;8.50;;;;;;;;;;2081517;28;20176;-59
2021/03/22 03:32:08;;;;;;;25.80;8.90;;;;;;;;;;2081167;28;20196;-58
2021/03/22 03:33:10;;;;;;;25.70;9.07;;;;;;;;;;2081879;28;20633;-60
2021/03/22 03:34:10;;;;;;;17.63;9.20;;;;;;;;;;2079535;28;20318;-58
2021/03/22 03:35:11;;;;;;;20.70;8.83;;;;;;;;;;2074069;28;20236;-59
2021/03/22 03:36:12;;;;;;;21.73;8.80;;;;;;;;;;2083546;28;20180;-61
2021/03/22 03:37:12;;;;;;;21.60;9.33;;;;;;;;;;2087478;28;20172;-60
2021/03/22 03:38:13;;;;;;;22.13;9.47;;;;;;;;;;2087455;28;20175;-59
2021/03/22 03:39:13;;;;;;;20.40;8.27;;;;;;;;;;2082476;28;20215;-58
2021/03/22 03:40:21;;;;;;;27.53;9.03;;;;;;;;;;2082060;28;20661;-56
2021/03/22 03:41:21;;;;;;;30.23;8.30;;;;;;;;;;2072240;28;20536;-59
2021/03/22 03:42:22;;;;;;;25.27;8.90;;;;;;;;;;2072966;28;20236;-58
2021/03/22 03:43:22;;;;;;;20.53;8.57;;;;;;;;;;2083397;28;20184;-58
2021/03/22 03:44:22;;;;;;;29.37;8.70;;;;;;;;;;2077560;28;20176;-60
2021/03/22 03:45:23;;;;;;;28.40;9.07;;;;;;;;;;2068823;28;20251;-59
2021/03/22 03:46:24;;;;;;;20.67;8.47;;;;;;;;;;2081326;28;20183;-58
2021/03/22 03:47:24;;;;;;;20.03;9.00;;;;;;;;;;2076098;28;20230;-61
2021/03/22 03:48:25;;;;;;;18.50;8.33;;;;;;;;;;2079604;28;20192;-58
2021/03/22 03:49:25;;;;;;;23.30;8.37;;;;;;;;;;2085290;28;20200;-60
2021/03/22 03:50:28;;;;;;;21.10;8.40;;;;;;;;;;2081111;28;20190;-61
2021/03/22 03:51:29;;;;;;;20.73;8.50;;;;;;;;;;2084807;28;20191;-61
2021/03/22 03:52:29;;;;;;;16.77;8.20;;;;;;;;;;2087426;28;20210;-59
2021/03/22 03:53:30;;;;;;;21.27;8.17;;;;;;;;;;2085494;28;20175;-57
2021/03/22 03:54:30;;;;;;;23.93;8.40;;;;;;;;;;2081756;28;20185;-60
2021/03/22 03:55:31;;;;;;;22.23;8.57;;;;;;;;;;2077180;28;20214;-59
2021/03/22 03:56:32;;;;;;;16.93;8.23;;;;;;;;;;2077728;28;20208;-61
2021/03/22 03:57:32;;;;;;;22.17;8.60;;;;;;;;;;2086640;28;20233;-59
2021/03/22 03:58:32;;;;;;;23.17;8.40;;;;;;;;;;2072241;28;20193;-59
2021/03/22 03:59:33;;;;;;;25.60;8.93;;;;;;;;;;2074650;28;20231;-58
2021/03/22 04:00:39;;;;;;;16.03;8.00;;;;;;;;;;2086489;28;20226;-58
2021/03/22 04:01:39;;;;;;;22.07;8.97;;;;;;;;;;2082911;28;20180;-61
2021/03/22 04:02:42;;;;;;;23.97;9.40;;;;;;;;;;2086981;28;20179;-59
2021/03/22 04:03:43;;;;;;;20.60;9.07;;;;;;;;;;2073709;28;20212;-60
2021/03/22 04:04:43;;;;;;;22.50;9.43;;;;;;;;;;2078327;28;20179;-55
2021/03/22 04:05:43;;;;;;;23.53;9.07;;;;;;;;;;2082866;28;20539;-60
2021/03/22 04:06:44;;;;;;;25.43;9.43;;;;;;;;;;2087875;28;20595;-59
2021/03/22 04:07:44;;;;;;;20.37;8.63;;;;;;;;;;2083151;28;20172;-60
2021/03/22 04:08:46;;;;;;;24.43;9.60;;;;;;;;;;2078981;28;20172;-59
2021/03/22 04:09:47;;;;;;;21.27;8.87;;;;;;;;;;2065462;28;20205;-57
2021/03/22 04:10:49;;;;;;;19.93;8.87;;;;;;;;;;2074518;28;20728;-60
2021/03/22 04:11:50;;;;;;;23.57;9.90;;;;;;;;;;2075491;28;20247;-60
2021/03/22 04:12:51;;;;;;;20.93;10.23;;;;;;;;;;2079899;28;20664;-58
2021/03/22 04:13:52;;;;;;;20.60;9.37;;;;;;;;;;2080900;28;20176;-59
2021/03/22 04:14:52;;;;;;;24.40;9.80;;;;;;;;;;2072764;28;20238;-59
2021/03/22 04:15:53;;;;;;;19.40;8.77;;;;;;;;;;2073944;28;20323;-60
2021/03/22 04:16:53;;;;;;;25.47;10.00;;;;;;;;;;2072386;28;20713;-60
2021/03/22 04:17:54;;;;;;;19.70;8.50;;;;;;;;;;2080360;28;20178;-57
2021/03/22 04:18:54;;;;;;;21.77;8.93;;;;;;;;;;2072133;28;20176;-58
2021/03/22 04:19:54;;;;;;;18.83;8.90;;;;;;;;;;2067778;28;20252;-60
2021/03/22 04:20:54;;;;;;;24.77;8.87;;;;;;;;;;2073523;28;20268;-60
2021/03/22 04:21:55;;;;;;;16.43;8.10;;;;;;;;;;2089055;28;20176;-59
2021/03/22 04:22:55;;;;;;;22.20;9.40;;;;;;;;;;2080612;28;20559;-58
2021/03/22 04:23:57;;;;;;;20.67;8.07;;;;;;;;;;2088649;28;20174;-55
2021/03/22 04:24:57;;;;;;;20.10;8.30;;;;;;;;;;2080686;28;20203;-62
2021/03/22 04:25:58;;;;;;;25.17;8.93;;;;;;;;;;2080678;28;20184;-61
2021/03/22 04:26:58;;;;;;;20.80;8.10;;;;;;;;;;2079955;28;20176;-62
2021/03/22 04:27:59;;;;;;;22.67;8.77;;;;;;;;;;2074101;28;20169;-59
2021/03/22 04:29:00;;;;;;;18.30;8.63;;;;;;;;;;2086155;28;20291;-60
2021/03/22 04:30:01;;;;;;;24.40;8.73;;;;;;;;;;2076429;28;20532;-59
2021/03/22 04:31:01;;;;;;;23.03;9.07;;;;;;;;;;2068573;28;20193;-62
2021/03/22 04:32:01;;;;;;;22.50;9.63;;;;;;;;;;2089258;28;20254;-61
2021/03/22 04:33:02;;;;;;;23.40;8.70;;;;;;;;;;2081253;28;20185;-59
2021/03/22 04:34:03;;;;;;;24.30;9.43;;;;;;;;;;2080167;28;20653;-57
2021/03/22 04:35:04;;;;;;;21.17;8.97;;;;;;;;;;2059447;28;20237;-58
2021/03/22 04:36:05;;;;;;;30.23;9.63;;;;;;;;;;2073352;28;20236;-59
2021/03/22 04:37:05;;;;;;;23.07;8.93;;;;;;;;;;2072242;28;20271;-60
2021/03/22 04:38:05;;;;;;;16.27;8.40;;;;;;;;;;2072910;28;20315;-59
2021/03/22 04:39:06;;;;;;;22.23;8.53;;;;;;;;;;2081775;28;20234;-61
2021/03/22 04:40:07;;;;;;;22.53;9.63;;;;;;;;;;2082158;28;20208;-59
2021/03/22 04:41:07;;;;;;;16.53;9.23;;;;;;;;;;2073024;28;20573;-60
2021/03/22 04:42:08;;;;;;;23.60;10.63;;;;;;;;;;2074399;28;20642;-61
2021/03/22 04:43:09;;;;;;;24.17;9.93;;;;;;;;;;2081668;28;20183;-57
2021/03/22 04:44:11;;;;;;;23.97;10.07;;;;;;;;;;2074067;28;20200;-58
2021/03/22 04:45:12;;;;;;;22.77;9.37;;;;;;;;;;2082290;28;20227;-61
2021/03/22 04:46:12;;;;;;;23.90;9.33;;;;;;;;;;2078785;28;20203;-55
2021/03/22 04:47:13;;;;;;;20.87;8.97;;;;;;;;;;2067956;28;20237;-59
2021/03/22 04:48:13;;;;;;;27.17;9.67;;;;;;;;;;2059510;28;20163;-57
2021/03/22 04:49:14;;;;;;;23.40;11.07;;;;;;;;;;2083097;28;20184;-59
2021/03/22 04:50:16;;;;;;;24.27;10.57;;;;;;;;;;2082225;28;20184;-56
2021/03/22 04:51:16;;;;;;;23.70;10.10;;;;;;;;;;2086427;28;20195;-53
2021/03/22 04:52:16;;;;;;;17.77;8.80;;;;;;;;;;2083473;28;20156;-59
2021/03/22 04:53:17;;;;;;;21.83;9.03;;;;;;;;;;2089711;28;20172;-58
2021/03/22 04:54:17;;;;;;;22.43;9.43;;;;;;;;;;2085003;28;20200;-58
2021/03/22 04:55:18;;;;;;;27.17;8.57;;;;;;;;;;2080575;28;20796;-59
2021/03/22 04:56:19;;;;;;;18.77;8.93;;;;;;;;;;2083453;28;20558;-60
2021/03/22 04:57:24;;;;;;;19.20;8.70;;;;;;;;;;2085488;28;20171;-56
2021/03/22 04:58:25;;;;;;;26.23;9.37;;;;;;;;;;2077205;28;20843;-59
2021/03/22 04:59:25;;;;;;;21.40;8.43;;;;;;;;;;2067827;28;20200;-60
2021/03/22 05:00:27;;;;;;;21.73;9.27;;;;;;;;;;2072605;28;20312;-59
2021/03/22 05:01:27;;;;;;;19.10;8.57;;;;;;;;;;2063603;28;20213;-60
2021/03/22 05:02:28;;;;;;;15.47;8.60;;;;;;;;;;2072124;28;20181;-59
2021/03/22 05:03:28;;;;;;;19.37;8.67;;;;;;;;;;2080528;28;20183;-61
2021/03/22 05:04:28;;;;;;;17.90;8.27;;;;;;;;;;2081136;28;20204;-59
2021/03/22 05:05:28;;;;;;;22.13;7.97;;;;;;;;;;2072460;28;20537;-58
2021/03/22 05:06:29;;;;;;;15.17;8.30;;;;;;;;;;2072541;28;20540;-59
2021/03/22 05:07:29;;;;;;;21.80;8.00;;;;;;;;;;2080793;28;20510;-58
2021/03/22 05:08:29;;;;;;;18.67;8.30;;;;;;;;;;2080859;28;20177;-59
2021/03/22 05:09:30;;;;;;;16.37;7.77;;;;;;;;;;2081232;28;20208;-57
2021/03/22 05:10:34;;;;;;;20.83;8.53;;;;;;;;;;2080816;28;20230;-59
2021/03/22 05:11:34;;;;;;;22.57;8.63;;;;;;;;;;2080771;28;20179;-60
2021/03/22 05:12:35;;;;;;;16.03;7.20;;;;;;;;;;2081181;28;20168;-60
2021/03/22 05:13:35;;;;;;;16.77;8.13;;;;;;;;;;2081739;28;20207;-59
2021/03/22 05:14:35;;;;;;;18.57;8.67;;;;;;;;;;2084217;28;20192;-60
2021/03/22 05:15:36;;;;;;;20.87;8.63;;;;;;;;;;2084263;28;20199;-59
2021/03/22 05:16:37;;;;;;;19.30;7.73;;;;;;;;;;2086591;28;20184;-58
2021/03/22 05:17:37;;;;;;;15.20;7.50;;;;;;;;;;2081787;28;20204;-59
2021/03/22 05:18:37;;;;;;;17.90;7.27;;;;;;;;;;2080770;28;20167;-56
2021/03/22 05:19:37;;;;;;;14.83;8.00;;;;;;;;;;2080531;28;20198;-58
2021/03/22 05:20:40;;;;;;;12.43;6.63;;;;;;;;;;2072293;28;20727;-59
2021/03/22 05:21:40;;;;;;;18.47;7.17;;;;;;;;;;2077394;28;20819;-59
2021/03/22 05:22:40;;;;;;;16.07;7.40;;;;;;;;;;2083000;28;20173;-60
2021/03/22 05:23:41;;;;;;;19.27;7.27;;;;;;;;;;2084545;28;20186;-59
2021/03/22 05:24:41;;;;;;;13.80;7.67;;;;;;;;;;2082926;28;20172;-58
2021/03/22 05:25:42;;;;;;;19.40;7.50;;;;;;;;;;2082142;28;20221;-59
2021/03/22 05:26:42;;;;;;;14.83;7.03;;;;;;;;;;2075740;28;20816;-57
2021/03/22 05:27:43;;;;;;;13.73;6.30;;;;;;;;;;2071418;28;20264;-58
2021/03/22 05:28:44;;;;;;;16.80;7.77;;;;;;;;;;2080124;28;20178;-57
2021/03/22 05:29:44;;;;;;;12.90;6.30;;;;;;;;;;2083849;28;20196;-58
2021/03/22 05:30:45;;;;;;;15.87;6.10;;;;;;;;;;2080064;28;20280;-59
2021/03/22 05:31:45;;;;;;;12.63;6.47;;;;;;;;;;2079186;28;20187;-57
2021/03/22 05:32:45;;;;;;;17.87;5.00;;;;;;;;;;2080785;28;20172;-59
2021/03/22 05:33:46;;;;;;;12.40;5.27;;;;;;;;;;2077026;28;20238;-56
2021/03/22 05:34:46;;;;;;;12.07;5.17;;;;;;;;;;2085385;28;20187;-54
2021/03/22 05:35:48;;;;;;;10.47;5.10;;;;;;;;;;2078482;28;20173;-55
2021/03/22 05:36:48;;;;;;;12.90;5.17;;;;;;;;;;2086765;28;20184;-55
2021/03/22 05:37:49;;;;;;;9.17;5.27;;;;;;;;;;2076410;28;20201;-58
2021/03/22 05:38:49;;;;;;;7.60;4.53;;;;;;;;;;2086460;28;20595;-54
2021/03/22 05:39:49;;;;;;;10.40;4.87;;;;;;;;;;2080950;28;20215;-60
2021/03/22 05:40:54;;;;;;;9.77;4.90;;;;;;;;;;2082730;28;20245;-58
2021/03/22 05:41:59;;;;;;;11.87;5.13;;;;;;;;;;2086927;28;20258;-57
2021/03/22 05:43:12;;;;;;;9.53;5.00;;;;;;;;;;2073574;28;20256;-55
2021/03/22 05:44:33;;;;;;;9.07;4.73;;;;;;;;;;2079525;28;20173;-57
2021/03/22 05:45:56;;;;;;;9.93;4.90;;;;;;;;;;2077526;28;20401;-54
2021/03/22 05:47:04;;;;;;;6.87;4.50;;;;;;;;;;2043121;29;20303;-59
2021/03/22 05:48:24;;;;;;;8.33;4.77;;;;;;;;;;2074304;28;20173;-56
2021/03/22 05:49:24;;;;;;;9.93;5.10;;;;;;;;;;2082204;28;20203;-58
2021/03/22 05:50:36;;;;;;;12.33;4.83;;;;;;;;;;2073740;28;20184;-57
2021/03/22 05:51:46;;;;;;;9.80;5.67;;;;;;;;;;2077584;28;20242;-57
2021/03/22 05:53:05;;;;;;;9.73;4.80;;;;;;;;;;2087741;28;20656;-57
2021/03/22 05:54:11;;;;;;;8.37;5.20;;;;;;;;;;2072589;28;20181;-58
2021/03/22 05:55:11;;;;;;;12.77;5.10;;;;;;;;;;2062533;28;20529;-56
2021/03/22 05:56:17;;;;;;;11.70;5.20;;;;;;;;;;2066149;28;20176;-57
2021/03/22 05:57:17;;;;;;;9.33;5.07;;;;;;;;;;2081424;28;20257;-59
2021/03/22 05:58:17;;;;;;;13.03;4.93;;;;;;;;;;2081075;28;20592;-57
2021/03/22 05:59:29;;;;;;;9.03;4.93;;;;;;;;;;2078323;28;20310;-56
2021/03/22 06:00:36;;;;;;;12.40;5.37;;;;;;;;;;2079343;28;20189;-54
2021/03/22 06:01:42;;;;;;;9.90;5.03;;;;;;;;;;2087468;28;20187;-61
2021/03/22 06:02:55;;;;;;;10.33;5.20;;;;;;;;;;2084555;28;20172;-59
2021/03/22 06:04:04;;;;;;;6.87;4.70;;;;;;;;;;2090312;28;20226;-59
2021/03/22 06:05:08;;;;;;;10.60;5.13;;;;;;;;;;2081798;28;20763;-58
2021/03/22 06:06:18;;;;;;;8.90;5.20;;;;;;;;;;2089565;28;20243;-62
2021/03/22 06:07:20;;;;;;;7.00;4.60;;;;;;;;;;2080066;28;20211;-59
2021/03/22 06:08:23;;;;;;;8.73;5.27;;;;;;;;;;2086021;28;20671;-58
2021/03/22 06:09:38;;;;;;;9.17;4.40;;;;;;;;;;2081135;28;20203;-61